Latest Weather Observations for Pirlangimpi

IDD60901

Issued at 4:35 pm CST Sunday 26 October 2014 (issued every 10 minutes, with the page automatically refreshed every 10 minutes)

About weather observations | Map of Darwin area stations | Latest observations for Darwin area | Other Formats
Station Details ID: 014142 Name: PIRLANGIMPI AIRPORT Lat: -11.40 Lon: 130.42 Height: 18.3 m
Data from the previous 72 hours. | See also: Recent months at Pirlangimpi
Date/Time
CST
Tmp

°C
App
Tmp
°C
Dew
Point
°C
Rel
Hum
%
Delta-T

°C
Wind Press
QNH
hPa
Press
MSL
hPa
Rain
since
9 am
mm
Dir
 
Spd
km/h
Gust
km/h
Spd
kts
Gust
kts
26/04:30pm 31.8 33.4 20.7 51 7.4 NNW 13 19 7 10 1010.4 1010.3 0.0
26/04:00pm 32.0 33.4 20.3 50 7.8 NNW 13 22 7 12 1010.5 1010.4 0.0
26/03:30pm 33.1 35.4 21.3 50 8.0 NNW 11 22 6 12 1010.5 1010.4 0.0
26/03:00pm 32.0 33.9 20.6 51 7.6 NW 11 19 6 10 1010.7 1010.6 0.0
26/02:30pm 33.2 35.3 21.0 48 8.2 NW 11 20 6 11 1010.9 1010.8 0.0
26/02:00pm 32.3 33.5 21.5 53 7.3 NW 17 26 9 14 1011.1 1011.0 0.0
26/01:30pm 32.7 34.2 21.2 50 7.8 NW 15 28 8 15 1011.4 1011.3 0.0
26/01:00pm 33.3 35.3 20.8 48 8.4 NW 11 20 6 11 1012.1 1012.0 0.0
26/12:30pm 32.5 33.6 20.4 49 8.1 NW 15 26 8 14 1012.7 1012.6 0.0
26/12:00pm 32.7 34.3 19.9 46 8.5 NW 11 20 6 11 1013.2 1013.1 0.0
26/11:30am 31.2 33.4 19.5 49 7.7 W 7 11 4 6 1013.7 1013.6 0.0
26/11:00am 31.2 33.8 19.2 48 7.8 NNW 4 9 2 5 1014.0 1013.9 0.0
26/10:30am 32.6 35.7 21.1 50 7.7 E 6 17 3 9 1014.4 1014.3 0.0
26/10:00am 31.4 33.8 19.7 49 7.7 S 6 15 3 8 1014.9 1014.8 0.0
26/09:30am 29.7 33.4 20.8 58 5.9 S 2 7 1 4 1015.0 1014.9 0.0
26/09:00am 29.1 32.2 20.3 59 5.8 SE 4 7 2 4 1015.0 1014.9 0.0
26/08:30am 28.6 32.4 20.9 63 5.1 E 2 6 1 3 1014.9 1014.8 0.0
26/08:00am 26.5 30.5 21.3 73 3.5 SSE 2 4 1 2 1014.6 1014.5 0.0
26/07:30am 24.1 27.9 21.0 83 2.0 ENE 2 4 1 2 1014.4 1014.3 0.0
26/07:00am 22.5 26.2 20.8 90 1.1 NNE 2 2 1 1 1013.9 1013.8 0.0
26/06:30am 22.0 25.9 20.3 90 1.1 CALM 0 0 0 0 1014.1 1014.0 0.0
26/06:00am 21.7 25.5 20.2 91 1.0 CALM 0 0 0 0 1013.8 1013.7 0.0
26/05:30am 21.8 25.4 19.7 88 1.3 CALM 0 0 0 0 1013.6 1013.5 0.0
26/05:00am 21.8 25.5 19.9 89 1.2 CALM 0 0 0 0 1013.2 1013.1 0.0
26/04:30am 22.0 25.6 19.7 87 1.5 CALM 0 0 0 0 1013.2 1013.1 0.0
26/04:00am 22.3 25.3 20.0 87 1.5 E 4 6 2 3 1013.1 1013.0 0.0
26/03:30am 22.4 25.4 20.1 87 1.5 ENE 4 6 2 3 1013.0 1012.9 0.0
26/03:00am 22.7 26.4 20.0 85 1.7 ENE 0 0 0 0 1013.1 1013.0 0.0
26/02:30am 23.0 26.8 20.1 84 1.9 CALM 0 0 0 0 1013.3 1013.2 0.0
26/02:00am 23.2 27.0 20.2 83 1.9 CALM 0 0 0 0 1013.5 1013.4 0.0
26/01:30am 23.3 27.1 20.1 82 2.1 CALM 0 0 0 0 1013.5 1013.4 0.0
26/01:00am 23.6 27.4 20.1 81 2.3 CALM 0 0 0 0 1013.6 1013.5 0.0
26/12:30am 23.8 27.3 20.3 81 2.3 NNE 2 6 1 3 1013.7 1013.6 0.0
26/12:00am 24.2 27.8 20.5 80 2.4 N 2 4 1 2 1014.2 1014.1 0.0
 
Date/Time
CST
Tmp

°C
App
Tmp
°C
Dew
Point
°C
Rel
Hum
%
Delta-T

°C
Wind Press
QNH
hPa
Press
MSL
hPa
Rain
since
9 am
mm
Dir
 
Spd
km/h
Gust
km/h
Spd
kts
Gust
kts
25/11:30pm 24.4 28.5 20.7 80 2.4 CALM 0 0 0 0 1014.5 1014.4 0.0
25/11:00pm 24.3 28.2 20.4 79 2.5 CALM 0 0 0 0 1014.6 1014.5 0.0
25/10:30pm 24.4 28.3 20.3 78 2.7 CALM 0 0 0 0 1014.6 1014.5 0.0
25/10:00pm 24.8 28.7 20.3 76 2.9 CALM 0 0 0 0 1014.2 1014.1 0.0
25/09:30pm 25.1 29.0 20.4 75 3.1 CALM 0 0 0 0 1013.9 1013.8 0.0
25/09:00pm 25.6 29.2 20.6 74 3.3 NNE 2 2 1 1 1013.6 1013.5 0.0
25/08:30pm 26.2 29.9 20.8 72 3.6 NNE 2 6 1 3 1013.3 1013.2 0.0
25/08:00pm 26.6 30.3 20.7 70 3.9 N 2 6 1 3 1012.9 1012.8 0.0
25/07:30pm 27.1 30.4 20.7 68 4.2 N 4 6 2 3 1012.6 1012.5 0.0
25/07:00pm 27.7 30.7 20.8 66 4.6 N 6 13 3 7 1012.3 1012.2 0.0
25/06:30pm 28.4 30.6 20.4 62 5.3 NNE 9 15 5 8 1012.0 1011.9 0.0
25/06:00pm 29.4 31.6 19.7 56 6.3 NNE 7 13 4 7 1011.7 1011.6 0.0
25/05:30pm 30.9 33.2 19.9 52 7.3 N 7 15 4 8 1011.5 1011.4 0.0
25/05:00pm 31.2 33.0 19.5 49 7.7 NNE 9 15 5 8 1011.3 1011.2 0.0
25/04:30pm 32.9 34.2 19.4 45 8.9 N 11 22 6 12 1011.3 1011.2 0.0
25/04:00pm 33.2 34.6 18.6 42 9.5 NNE 9 22 5 12 1011.5 1011.4 0.0
25/03:30pm 33.6 34.9 18.5 40 9.8 N 9 19 5 10 1011.6 1011.5 0.0
25/03:00pm 34.9 35.8 18.5 38 10.7 NNE 11 22 6 12 1011.5 1011.4 0.0
25/02:30pm 33.8 35.2 17.9 38 10.3 N 7 15 4 8 1011.9 1011.8 0.0
25/02:00pm 33.5 35.8 19.9 44 9.0 NE 7 22 4 12 1012.2 1012.1 0.0
25/01:30pm 34.2 35.8 17.8 37 10.6 NNE 6 13 3 7 1012.4 1012.3 0.0
25/01:00pm 35.8 36.7 17.5 34 11.8 SE 9 17 5 9 1012.8 1012.7 0.0
25/12:30pm 34.9 35.3 17.2 35 11.4 ESE 11 20 6 11 1013.2 1013.1 0.0
25/12:00pm 34.6 35.8 18.2 37 10.7 NE 9 20 5 11 1013.8 1013.7 0.0
25/11:30am 34.3 36.1 18.8 40 10.2 ENE 7 17 4 9 1014.1 1014.0 0.0
25/11:00am 34.0 34.4 18.1 39 10.3 E 13 26 7 14 1014.4 1014.3 0.0
25/10:30am 32.4 32.4 18.2 42 9.2 ENE 15 24 8 13 1014.9 1014.8 0.0
25/10:00am 32.2 33.0 19.1 45 8.6 E 13 20 7 11 1015.2 1015.1 0.0
25/09:30am 31.2 33.0 21.1 55 6.8 ENE 13 22 7 12 1015.5 1015.4 0.0
25/09:00am 30.0 32.0 20.8 57 6.1 E 11 22 6 12 1015.7 1015.6 0.0
25/08:30am 29.1 32.5 21.6 64 5.0 E 6 17 3 9 1015.5 1015.4 0.0
25/08:00am 27.0 30.7 21.5 72 3.7 SSE 4 7 2 4 1015.5 1015.4 0.0
25/07:30am 25.4 29.3 21.9 81 2.3 SE 4 6 2 3 1015.4 1015.3 0.0
25/07:00am 23.3 27.4 21.6 90 1.1 ESE 2 4 1 2 1014.8 1014.7 0.0
25/06:30am 22.3 26.1 20.2 88 1.4 CALM 0 0 0 0 1014.6 1014.5 0.0
25/06:00am 22.6 25.8 20.5 88 1.4 ENE 4 4 2 2 1014.0 1013.9 0.0
25/05:30am 23.1 26.4 20.8 87 1.5 SE 4 6 2 3 1013.8 1013.7 0.0
25/05:00am 23.4 26.9 21.1 87 1.5 ESE 4 7 2 4 1013.6 1013.5 0.0
25/04:30am 23.3 26.9 21.2 88 1.4 SE 4 6 2 3 1013.4 1013.3 0.0
25/04:00am 22.6 25.9 20.7 89 1.2 SSE 4 6 2 3 1013.2 1013.1 0.0
25/03:30am 22.6 26.5 20.3 87 1.5 CALM 0 2 0 1 1012.6 1012.5 0.0
25/03:00am 22.8 26.9 20.7 88 1.4 CALM 0 0 0 0 1012.7 1012.6 0.0
25/02:30am 22.9 26.9 20.6 87 1.5 CALM 0 0 0 0 1012.6 1012.5 0.0
25/02:00am 22.8 26.4 20.5 87 1.5 NE 2 4 1 2 1012.8 1012.7 0.0
25/01:30am 23.1 27.1 20.6 86 1.6 CALM 0 0 0 0 1013.0 1012.9 0.0
25/01:00am 23.5 27.5 20.6 84 1.9 CALM 0 0 0 0 1013.3 1013.2 0.0
25/12:30am 23.9 27.6 20.8 83 2.0 N 2 4 1 2 1013.5 1013.4 0.0
25/12:00am 24.5 28.7 21.0 81 2.3 CALM 0 0 0 0 1013.6 1013.5 0.0
 
Date/Time
CST
Tmp

°C
App
Tmp
°C
Dew
Point
°C
Rel
Hum
%
Delta-T

°C
Wind Press
QNH
hPa
Press
MSL
hPa
Rain
since
9 am
mm
Dir
 
Spd
km/h
Gust
km/h
Spd
kts
Gust
kts
24/11:30pm 24.8 29.0 20.9 79 2.6 CALM 0 4 0 2 1013.8 1013.7 0.0
24/11:00pm 25.1 29.3 21.0 78 2.7 CALM 0 0 0 0 1013.8 1013.7 0.0
24/10:30pm 25.5 29.4 21.2 77 2.8 NE 2 6 1 3 1013.8 1013.7 0.0
24/10:00pm 25.6 29.5 21.1 76 3.0 NNE 2 6 1 3 1013.4 1013.3 0.0
24/09:30pm 25.2 28.6 20.2 74 3.3 N 2 4 1 2 1013.1 1013.0 0.0
24/09:00pm 25.6 29.4 20.2 72 3.5 CALM 0 0 0 0 1012.7 1012.6 0.0
24/08:30pm 26.2 29.4 19.8 68 4.2 N 2 4 1 2 1012.2 1012.1 0.0
24/08:00pm 26.9 30.1 19.8 65 4.6 NNW 2 4 1 2 1011.7 1011.6 0.0
24/07:30pm 27.7 30.3 20.0 63 5.0 NNE 6 11 3 6 1011.3 1011.2 0.0
24/07:00pm 28.0 30.9 20.6 64 4.9 NE 6 15 3 8 1010.8 1010.7 0.0
24/06:30pm 28.8 30.8 20.8 62 5.3 NE 11 22 6 12 1010.4 1010.3 0.0
24/06:00pm 29.6 31.2 20.7 58 5.9 NE 13 26 7 14 1010.3 1010.2 0.0
24/05:30pm 31.4 32.4 21.0 54 7.0 NE 17 28 9 15 1010.1 1010.0 0.0
24/05:00pm 31.7 32.0 20.3 50 7.6 NE 19 32 10 17 1010.0 1009.9 0.0
24/04:30pm 32.5 33.1 21.0 50 7.7 NE 19 33 10 18 1010.0 1009.9 0.0
24/04:00pm 34.0 34.3 20.7 45 8.9 NE 20 37 11 20 1010.1 1010.0 0.0
24/03:30pm 34.0 34.5 20.0 43 9.3 NE 17 28 9 15 1010.1 1010.0 0.0
24/03:00pm 34.2 35.0 19.1 41 9.9 NNE 13 26 7 14 1010.2 1010.1 0.0
24/02:30pm 35.3 36.9 20.0 40 10.2 NNE 11 26 6 14 1010.3 1010.2 0.0
24/02:00pm 36.1 36.7 19.5 37 11.0 NE 15 30 8 16 1010.6 1010.5 0.0
24/01:30pm 35.7 36.6 20.0 39 10.5 NE 15 24 8 13 1010.9 1010.8 0.0
24/01:00pm 35.7 36.3 18.7 36 11.2 E 13 24 7 13 1011.5 1011.4 0.0
24/12:30pm 35.8 36.7 19.3 38 10.9 E 13 26 7 14 1012.0 1011.9 0.0
24/12:00pm 34.8 36.2 19.6 40 10.1 ENE 11 22 6 12 1012.5 1012.4 0.0
24/11:30am 33.3 32.9 19.0 42 9.4 E 19 33 10 18 1013.1 1013.0 0.0
24/11:00am 33.5 34.0 19.2 43 9.4 E 15 24 8 13 1013.4 1013.3 0.0
24/10:30am 32.8 32.8 18.9 43 9.1 E 17 24 9 13 1013.8 1013.7 0.0
24/10:00am 32.5 33.6 19.7 46 8.4 E 13 19 7 10 1014.0 1013.9 0.0
24/09:30am 31.7 34.0 20.6 51 7.4 E 9 13 5 7 1014.2 1014.1 0.0
24/09:00am 30.2 33.4 21.3 59 6.0 E 6 11 3 6 1014.4 1014.3 0.0
24/08:30am 29.1 33.0 21.8 64 4.9 E 4 11 2 6 1014.4 1014.3 0.0
24/08:00am 27.3 31.0 22.3 74 3.4 SE 6 6 3 3 1014.3 1014.2 0.0
24/07:30am 25.0 29.9 22.3 85 1.8 CALM 0 0 0 0 1013.9 1013.8 0.0
24/07:00am 22.7 27.1 21.3 92 0.9 CALM 0 0 0 0 1013.6 1013.5 0.0
24/06:30am 22.2 25.9 20.8 92 0.9 ENE 2 4 1 2 1013.6 1013.5 0.0
24/06:00am 22.2 26.3 20.7 91 1.0 CALM 0 0 0 0 1013.4 1013.3 0.0
24/05:30am 22.4 26.2 20.9 91 1.0 ENE 2 4 1 2 1013.2 1013.1 0.0
24/05:00am 22.6 26.1 21.1 91 1.0 E 4 6 2 3 1013.1 1013.0 0.0
24/04:30am 22.5 25.9 21.0 91 1.0 ESE 4 4 2 2 1013.0 1012.9 0.0
24/04:00am 22.6 26.9 21.1 91 1.0 CALM 0 0 0 0 1012.7 1012.6 0.0
24/03:30am 22.6 26.8 20.9 90 1.1 CALM 0 0 0 0 1012.6 1012.5 0.0
24/03:00am 22.8 26.7 21.1 90 1.1 ENE 2 4 1 2 1012.8 1012.7 0.0
24/02:30am 22.8 26.7 21.1 90 1.1 NE 2 4 1 2 1012.9 1012.8 0.0
24/02:00am 22.9 27.1 21.0 89 1.2 CALM 0 0 0 0 1013.2 1013.1 0.0
24/01:30am 23.2 26.7 21.1 88 1.4 ENE 4 4 2 2 1013.4 1013.3 0.0
24/01:00am 23.4 27.7 21.1 87 1.5 CALM 0 0 0 0 1013.6 1013.5 0.0
24/12:30am 23.5 27.7 21.0 86 1.6 CALM 0 0 0 0 1013.9 1013.8 0.0
24/12:00am 23.8 28.2 21.3 86 1.6 CALM 0 0 0 0 1014.0 1013.9 0.0
 
Date/Time
CST
Tmp

°C
App
Tmp
°C
Dew
Point
°C
Rel
Hum
%
Delta-T

°C
Wind Press
QNH
hPa
Press
MSL
hPa
Rain
since
9 am
mm
Dir
 
Spd
km/h
Gust
km/h
Spd
kts
Gust
kts
23/11:30pm 24.0 28.4 21.3 85 1.8 CALM 0 0 0 0 1014.0 1013.9 0.0
23/11:00pm 24.2 28.6 21.3 84 1.9 CALM 0 0 0 0 1014.2 1014.1 0.0
23/10:30pm 24.5 28.8 21.2 82 2.2 CALM 0 0 0 0 1014.0 1013.9 0.0
23/10:00pm 24.8 29.3 21.5 82 2.2 CALM 0 0 0 0 1013.7 1013.6 0.0
23/09:30pm 25.1 29.4 21.2 79 2.6 CALM 0 0 0 0 1013.1 1013.0 0.0
23/09:00pm 25.5 29.9 21.4 78 2.7 CALM 0 0 0 0 1012.8 1012.7 0.0
23/08:30pm 25.9 30.3 21.3 76 3.0 CALM 0 0 0 0 1012.4 1012.3 0.0
23/08:00pm 26.7 31.3 21.7 74 3.3 CALM 0 2 0 1 1012.0 1011.9 0.0
23/07:30pm 27.1 30.5 21.6 72 3.7 NNE 6 9 3 5 1011.5 1011.4 0.0
23/07:00pm 27.6 30.9 21.4 69 4.1 NNE 6 13 3 7 1011.1 1011.0 0.0
23/06:30pm 28.5 31.5 21.3 65 4.8 NNE 7 13 4 7 1011.0 1010.9 0.0
23/06:00pm 29.5 31.4 20.6 58 5.9 NE 11 20 6 11 1010.6 1010.5 0.0
23/05:30pm 31.4 33.2 20.4 52 7.3 NE 11 19 6 10 1010.3 1010.2 0.0
23/05:00pm 32.9 34.1 18.3 42 9.5 NNE 9 19 5 10 1009.9 1009.8 0.0

Latest Capital City Observations: Canberra | Sydney | Melbourne | Brisbane | Adelaide | Perth | Hobart | Darwin

Other Formats:

Comma delimited format used in spreadsheet applications
http://www.bom.gov.au/fwo/IDD60901/IDD60901.94119.axf

JavaScript Object Notation format (JSON) in row-major order
http://www.bom.gov.au/fwo/IDD60901/IDD60901.94119.json